Aviation Digital Data Service (ADDS)

Output produced by METARs form (0531 UTC 19 March 2019)
found at http://www.aviationweather.gov/metar/data/
 
Forecast for: LESA (SALAMANCA (CIV/M, ES)
Text: TAF LESA 190500Z 1906/2006 06006KT CAVOK TX13/1916Z TNM00/1906Z
Forecast period: 0600 UTC 19 March 2019 to 0600 UTC 20 March 2019
Forecast type: FROM: standard forecast or significant change
Winds: from the ENE (60 degrees) at 7 MPH (6 knots; 3.1 m/s)
Visibility: 6 or more miles 10+ km)
Ceiling: unknown
Clouds: missing
Weather: no significant weather forecast for this period
Text: TEMPO 1912/1918 04022KT
Forecast period: 1200 to 1800 UTC 19 March 2019
Forecast type: TEMPORARY: The following changes expected for less than half the time period
Winds: from the NE (40 degrees) at 25 MPH (22 knots; 11.3 m/s)
Visibility: missing
Ceiling: unknown
Clouds: missing
Weather: no significant weather forecast for this period